Terminal Aerodrome Forecast
Issued by NWS

Home | Current Version | Previous Version | Text Only | Print | Product List | Glossary On
Versions: 1 2 3 4 5 6 7 8 9 10 11 12 13 14 15 16 17 18
000
FTUS43 KAPX 250700 AAA
TAFTVC
TAF AMD
KTVC 250708Z 2507/2606 VRB05KT P6SM OVC027
     FM250900 23007KT P6SM OVC015
     FM251330 27009KT P6SM SCT015
     FM251500 27011G18KT P6SM FEW040
     FM260000 30010KT P6SM FEW040=

USA.gov is the U.S. government's official web portal to all federal, state and local government web resources and services.